Time;durP1;ratioP1;P1;durP2;ratioP2;P2;SDS_P1;SDS_P2;PMS_P1;PMS_P2;Temp;Humidity;BMP_temperature;BMP_pressure;BME280_temperature;BME280_humidity;BME280_pressure;Samples;Min_cycle;Max_cycle;Signal;HPM_P1;HPM_P2
2023/10/28 00:01:26;;;;;;;51.15;25.58;;;;;;;;;;10367594;28;20030;-82
2023/10/28 00:06:27;;;;;;;49.40;26.88;;;;;;;;;;10361129;28;20104;-81
2023/10/28 00:11:29;;;;;;;52.35;27.58;;;;;;;;;;10367953;28;20083;-80
2023/10/28 00:16:30;;;;;;;50.45;26.85;;;;;;;;;;10362943;28;20140;-81
2023/10/28 00:21:32;;;;;;;48.25;24.13;;;;;;;;;;10368248;28;20041;-81
2023/10/28 00:26:34;;;;;;;46.60;24.33;;;;;;;;;;10360426;28;20042;-81
2023/10/28 00:31:35;;;;;;;47.40;26.03;;;;;;;;;;10359714;28;20054;-81
2023/10/28 00:36:36;;;;;;;48.95;26.13;;;;;;;;;;10360484;28;20513;-83
2023/10/28 00:41:37;;;;;;;43.42;24.73;;;;;;;;;;10360899;28;20058;-81
2023/10/28 00:46:38;;;;;;;43.20;24.92;;;;;;;;;;10362263;28;20030;-81
2023/10/28 00:51:41;;;;;;;44.05;25.65;;;;;;;;;;10362097;28;20033;-83
2023/10/28 00:56:42;;;;;;;44.58;24.15;;;;;;;;;;10345259;28;20042;-80
2023/10/28 01:01:43;;;;;;;50.97;27.38;;;;;;;;;;10365341;28;20713;-81
2023/10/28 01:06:44;;;;;;;56.53;30.42;;;;;;;;;;10363240;28;20362;-83
2023/10/28 01:11:46;;;;;;;55.30;31.00;;;;;;;;;;10370622;28;20108;-81
2023/10/28 01:16:49;;;;;;;59.10;30.35;;;;;;;;;;10368886;28;20057;-81
2023/10/28 01:21:50;;;;;;;57.00;29.85;;;;;;;;;;10366604;28;20118;-81
2023/10/28 01:26:51;;;;;;;48.85;27.48;;;;;;;;;;10366714;28;20058;-82
2023/10/28 01:31:52;;;;;;;50.25;26.75;;;;;;;;;;10380849;28;20049;-83
2023/10/28 01:36:55;;;;;;;47.35;26.42;;;;;;;;;;10369343;28;20485;-81
2023/10/28 01:41:56;;;;;;;46.63;25.30;;;;;;;;;;10366495;28;20036;-81
2023/10/28 01:46:57;;;;;;;42.38;24.23;;;;;;;;;;10370348;28;20033;-84
2023/10/28 01:51:58;;;;;;;38.03;22.45;;;;;;;;;;10365231;28;20164;-81
2023/10/28 01:57:06;;;;;;;36.90;20.83;;;;;;;;;;10365969;28;20038;-84
2023/10/28 02:02:07;;;;;;;32.65;19.23;;;;;;;;;;10367381;28;20713;-81
2023/10/28 02:07:09;;;;;;;34.03;19.52;;;;;;;;;;10364985;28;20029;-81
2023/10/28 02:12:11;;;;;;;31.63;19.63;;;;;;;;;;10347586;28;20033;-81
2023/10/28 02:17:13;;;;;;;41.53;22.27;;;;;;;;;;10366594;28;20124;-80
2023/10/28 02:22:14;;;;;;;39.55;20.20;;;;;;;;;;10350029;28;20030;-80
2023/10/28 02:27:15;;;;;;;28.80;16.65;;;;;;;;;;10365923;28;20509;-82
2023/10/28 02:32:17;;;;;;;35.97;17.90;;;;;;;;;;10369513;28;20061;-81
2023/10/28 02:37:19;;;;;;;30.63;16.00;;;;;;;;;;10373380;28;20053;-81
2023/10/28 02:42:23;;;;;;;26.15;15.18;;;;;;;;;;10371059;28;20025;-81
2023/10/28 02:47:24;;;;;;;24.92;12.95;;;;;;;;;;10358975;28;20025;-80
2023/10/28 02:52:26;;;;;;;27.92;15.25;;;;;;;;;;10363421;28;20046;-81
2023/10/28 02:57:27;;;;;;;24.38;14.20;;;;;;;;;;10364109;28;20034;-81
2023/10/28 03:02:28;;;;;;;28.27;14.30;;;;;;;;;;10374127;28;20103;-81
2023/10/28 03:07:29;;;;;;;27.50;15.85;;;;;;;;;;10364917;28;20113;-80
2023/10/28 03:12:30;;;;;;;25.55;13.88;;;;;;;;;;10355891;28;20045;-81
2023/10/28 03:17:31;;;;;;;23.30;12.65;;;;;;;;;;10363913;28;20069;-81
2023/10/28 03:22:32;;;;;;;18.52;11.20;;;;;;;;;;10364835;28;20083;-81
2023/10/28 03:27:33;;;;;;;17.10;10.10;;;;;;;;;;10344799;28;20041;-80
2023/10/28 03:32:34;;;;;;;15.45;9.93;;;;;;;;;;10369458;28;20462;-81
2023/10/28 03:37:37;;;;;;;16.38;10.13;;;;;;;;;;10369230;28;20046;-80
2023/10/28 03:42:38;;;;;;;15.75;9.90;;;;;;;;;;10365392;28;20061;-79
2023/10/28 03:47:39;;;;;;;16.15;9.85;;;;;;;;;;10373616;28;20120;-82
2023/10/28 03:52:40;;;;;;;16.65;9.32;;;;;;;;;;10360346;28;20029;-80
2023/10/28 03:57:41;;;;;;;16.92;9.88;;;;;;;;;;10353238;28;20042;-82
2023/10/28 04:02:42;;;;;;;18.50;10.10;;;;;;;;;;10360008;28;20033;-81
2023/10/28 04:07:43;;;;;;;16.73;10.15;;;;;;;;;;10360086;28;20364;-80
2023/10/28 04:12:44;;;;;;;14.38;9.75;;;;;;;;;;10361639;28;20385;-80
2023/10/28 04:17:45;;;;;;;16.00;9.50;;;;;;;;;;10362572;28;20485;-80
2023/10/28 04:22:46;;;;;;;17.88;10.05;;;;;;;;;;10359467;28;20032;-84
2023/10/28 04:27:48;;;;;;;13.82;9.20;;;;;;;;;;10365190;28;20048;-80
2023/10/28 04:32:52;;;;;;;15.52;9.80;;;;;;;;;;10356726;28;20046;-81
2023/10/28 04:37:53;;;;;;;18.17;10.18;;;;;;;;;;10366182;28;20037;-80
2023/10/28 04:42:54;;;;;;;16.90;10.13;;;;;;;;;;10366763;28;20057;-85
2023/10/28 04:48:02;;;;;;;15.05;9.98;;;;;;;;;;10362617;28;20033;-84
2023/10/28 04:53:03;;;;;;;17.23;10.07;;;;;;;;;;10370936;28;20042;-81
2023/10/28 04:58:05;;;;;;;23.65;13.18;;;;;;;;;;10367265;28;20050;-81
2023/10/28 05:03:06;;;;;;;31.33;15.23;;;;;;;;;;10373158;28;20033;-81
2023/10/28 05:08:14;;;;;;;25.17;13.30;;;;;;;;;;10368530;28;20076;-81
2023/10/28 05:13:15;;;;;;;19.23;11.40;;;;;;;;;;10368426;28;20377;-81
2023/10/28 05:18:16;;;;;;;22.48;11.63;;;;;;;;;;10375624;28;20563;-83
2023/10/28 05:23:19;;;;;;;21.80;12.07;;;;;;;;;;10367645;28;20083;-83
2023/10/28 05:28:21;;;;;;;21.27;12.00;;;;;;;;;;10367067;28;20108;-81
2023/10/28 05:33:22;;;;;;;23.73;13.20;;;;;;;;;;10369339;28;20034;-84
2023/10/28 05:38:23;;;;;;;24.27;14.20;;;;;;;;;;10368253;28;20041;-85
2023/10/28 05:43:24;;;;;;;20.00;12.30;;;;;;;;;;10366325;28;20057;-81
2023/10/28 05:48:25;;;;;;;21.70;12.50;;;;;;;;;;10368914;28;20585;-80
2023/10/28 05:53:26;;;;;;;27.80;14.60;;;;;;;;;;10372792;28;20034;-81
2023/10/28 05:58:27;;;;;;;38.00;20.47;;;;;;;;;;10365312;28;20048;-81
2023/10/28 06:03:28;;;;;;;30.83;16.60;;;;;;;;;;10367297;28;20121;-82
2023/10/28 06:08:29;;;;;;;26.27;13.53;;;;;;;;;;10365637;28;20026;-83
2023/10/28 06:13:30;;;;;;;25.00;13.57;;;;;;;;;;10371255;28;20481;-81
2023/10/28 06:18:31;;;;;;;20.00;12.83;;;;;;;;;;10380818;28;20044;-81
2023/10/28 06:23:33;;;;;;;31.73;21.33;;;;;;;;;;10375408;28;20033;-83
2023/10/28 06:28:35;;;;;;;57.23;33.87;;;;;;;;;;10370307;28;20108;-81
2023/10/28 06:33:36;;;;;;;56.33;29.30;;;;;;;;;;10389534;28;20034;-81
2023/10/28 06:38:37;;;;;;;182.70;127.90;;;;;;;;;;10361892;28;20347;-82
2023/10/28 06:43:38;;;;;;;65.27;45.43;;;;;;;;;;10366909;28;20037;-82
2023/10/28 06:48:39;;;;;;;21.53;14.53;;;;;;;;;;10382467;28;20030;-82
2023/10/28 06:53:43;;;;;;;21.43;12.67;;;;;;;;;;10364142;28;20569;-83
2023/10/28 06:58:44;;;;;;;20.83;14.07;;;;;;;;;;10361146;28;20124;-85
2023/10/28 07:03:45;;;;;;;20.92;14.77;;;;;;;;;;10365624;28;20080;-83
2023/10/28 07:08:48;;;;;;;16.97;12.13;;;;;;;;;;10373707;28;20037;-84
2023/10/28 07:13:55;;;;;;;17.98;10.77;;;;;;;;;;10353491;28;20033;-84
2023/10/28 07:18:56;;;;;;;19.45;11.95;;;;;;;;;;10370022;28;20041;-81
2023/10/28 07:23:57;;;;;;;18.95;10.50;;;;;;;;;;10364197;28;20033;-80
2023/10/28 07:28:58;;;;;;;21.48;13.45;;;;;;;;;;10357660;28;20615;-82
2023/10/28 07:34:00;;;;;;;23.27;15.73;;;;;;;;;;10376462;28;20058;-87
2023/10/28 07:39:01;;;;;;;26.30;16.20;;;;;;;;;;10373956;28;20038;-83
2023/10/28 07:44:03;;;;;;;20.00;12.30;;;;;;;;;;10369220;28;20033;-83
2023/10/28 07:49:04;;;;;;;18.25;11.35;;;;;;;;;;10373368;28;20574;-84
2023/10/28 07:54:05;;;;;;;16.13;11.35;;;;;;;;;;10365498;28;20042;-83
2023/10/28 07:59:07;;;;;;;16.98;9.45;;;;;;;;;;10351583;28;20041;-83
2023/10/28 08:04:08;;;;;;;17.77;10.23;;;;;;;;;;10361790;28;20405;-81
2023/10/28 08:09:09;;;;;;;17.40;10.80;;;;;;;;;;10364570;28;20148;-81
2023/10/28 08:14:10;;;;;;;14.68;8.50;;;;;;;;;;10370269;28;20030;-81
2023/10/28 08:19:12;;;;;;;13.88;9.40;;;;;;;;;;10378693;28;20053;-81
2023/10/28 08:24:15;;;;;;;11.43;5.85;;;;;;;;;;10372036;28;20555;-85
2023/10/28 08:29:16;;;;;;;8.02;4.65;;;;;;;;;;10375736;28;20068;-80
2023/10/28 08:34:17;;;;;;;8.88;5.32;;;;;;;;;;10389904;28;20385;-83
2023/10/28 08:39:19;;;;;;;11.23;5.28;;;;;;;;;;10396936;28;20026;-87
2023/10/28 08:44:27;;;;;;;10.63;5.93;;;;;;;;;;10376048;28;20030;-84
2023/10/28 08:49:28;;;;;;;10.25;5.70;;;;;;;;;;10394128;28;20057;-83
2023/10/28 08:54:31;;;;;;;13.50;7.82;;;;;;;;;;10389718;28;20183;-85
2023/10/28 08:59:32;;;;;;;8.90;5.47;;;;;;;;;;10390034;28;20772;-83
2023/10/28 09:04:33;;;;;;;12.85;7.32;;;;;;;;;;10393653;28;20547;-84
2023/10/28 09:09:37;;;;;;;9.20;4.70;;;;;;;;;;10391870;28;20029;-79
2023/10/28 09:14:39;;;;;;;11.60;6.50;;;;;;;;;;10371736;28;20030;-82
2023/10/28 09:19:40;;;;;;;11.63;6.45;;;;;;;;;;10356268;28;20034;-81
2023/10/28 09:24:44;;;;;;;13.00;5.63;;;;;;;;;;10365919;28;20030;-81
2023/10/28 09:29:45;;;;;;;7.15;3.55;;;;;;;;;;10356945;28;20060;-81
2023/10/28 09:34:46;;;;;;;7.32;3.35;;;;;;;;;;10367036;28;20038;-82
2023/10/28 09:39:48;;;;;;;23.73;8.60;;;;;;;;;;10366978;28;20038;-82
2023/10/28 09:44:49;;;;;;;4.18;2.60;;;;;;;;;;10366201;28;20080;-85
2023/10/28 09:50:00;;;;;;;17.90;8.30;;;;;;;;;;10366421;28;20416;-82
2023/10/28 09:55:07;;;;;;;9.75;4.40;;;;;;;;;;10364310;28;20037;-80
2023/10/28 10:00:17;;;;;;;8.02;2.75;;;;;;;;;;10361840;28;20113;-82
2023/10/28 10:05:23;;;;;;;10.18;3.95;;;;;;;;;;10365193;28;20586;-82
2023/10/28 10:10:25;;;;;;;11.75;4.35;;;;;;;;;;10357914;28;20619;-83
2023/10/28 10:15:29;;;;;;;8.48;3.60;;;;;;;;;;10356534;28;20609;-82
2023/10/28 10:20:33;;;;;;;10.47;2.87;;;;;;;;;;10359345;28;20463;-83
2023/10/28 10:25:39;;;;;;;5.65;3.28;;;;;;;;;;10363464;28;20030;-81
2023/10/28 10:30:40;;;;;;;;;;;;;;;;;;10362415;28;20204;-84
2023/10/28 10:35:46;;;;;;;5.95;2.67;;;;;;;;;;10363787;28;20368;-82
2023/10/28 10:40:47;;;;;;;7.82;4.10;;;;;;;;;;10363360;28;20474;-82
2023/10/28 10:45:48;;;;;;;8.55;4.45;;;;;;;;;;10346719;28;20077;-85
2023/10/28 10:50:50;;;;;;;6.53;3.53;;;;;;;;;;10367663;28;20075;-82
2023/10/28 10:55:51;;;;;;;8.20;4.13;;;;;;;;;;10370235;28;20042;-82
2023/10/28 11:00:54;;;;;;;9.15;3.95;;;;;;;;;;10376292;28;20103;-83
2023/10/28 11:06:02;;;;;;;7.22;3.90;;;;;;;;;;10382707;28;20041;-80
2023/10/28 11:11:13;;;;;;;6.57;3.50;;;;;;;;;;10382344;28;20505;-83
2023/10/28 11:16:26;;;;;;;10.93;4.07;;;;;;;;;;10374960;28;20053;-86
2023/10/28 11:21:28;;;;;;;8.07;4.50;;;;;;;;;;10364549;28;20041;-85
2023/10/28 11:26:29;;;;;;;9.80;3.95;;;;;;;;;;10361691;28;20021;-83
2023/10/28 11:31:40;;;;;;;6.38;3.75;;;;;;;;;;10352582;28;20054;-87
2023/10/28 11:36:42;;;;;;;6.78;3.60;;;;;;;;;;10353415;28;20049;-82
2023/10/28 11:41:49;;;;;;;6.93;3.30;;;;;;;;;;10385671;28;20029;-83
2023/10/28 11:46:50;;;;;;;5.05;3.00;;;;;;;;;;10382617;28;20036;-80
2023/10/28 11:51:51;;;;;;;5.60;3.20;;;;;;;;;;10372253;28;20420;-81
2023/10/28 11:56:52;;;;;;;6.03;3.63;;;;;;;;;;10391681;28;20563;-80
2023/10/28 12:01:54;;;;;;;4.95;3.72;;;;;;;;;;10380335;28;20629;-83
2023/10/28 12:06:55;;;;;;;6.90;4.57;;;;;;;;;;10387661;28;20542;-84
2023/10/28 12:11:56;;;;;;;8.95;5.68;;;;;;;;;;10375341;28;20025;-81
2023/10/28 12:17:04;;;;;;;7.50;5.57;;;;;;;;;;10388992;28;20069;-83
2023/10/28 12:22:05;;;;;;;10.07;5.82;;;;;;;;;;10351782;28;20042;-82
2023/10/28 12:27:06;;;;;;;7.85;5.25;;;;;;;;;;10375007;28;20098;-83
2023/10/28 12:32:07;;;;;;;10.43;5.60;;;;;;;;;;10385280;28;20061;-86
2023/10/28 12:37:08;;;;;;;9.75;6.15;;;;;;;;;;10374196;28;20042;-82
2023/10/28 12:42:09;;;;;;;9.80;6.13;;;;;;;;;;10376519;28;20091;-83
2023/10/28 12:47:10;;;;;;;8.48;5.32;;;;;;;;;;10379596;28;20026;-83
2023/10/28 12:52:11;;;;;;;8.68;4.88;;;;;;;;;;10372852;28;20362;-82
2023/10/28 12:57:12;;;;;;;12.63;6.55;;;;;;;;;;10401273;28;20037;-81
2023/10/28 13:02:20;;;;;;;9.43;6.20;;;;;;;;;;10396124;28;20464;-84
2023/10/28 13:07:21;;;;;;;11.30;5.25;;;;;;;;;;10392014;28;20524;-80
2023/10/28 13:12:22;;;;;;;13.02;6.50;;;;;;;;;;10409409;28;20018;-83
2023/10/28 13:17:23;;;;;;;9.65;5.75;;;;;;;;;;10371037;28;20050;-79
2023/10/28 13:22:24;;;;;;;10.48;5.80;;;;;;;;;;10368540;28;20038;-84
2023/10/28 13:27:26;;;;;;;15.98;7.60;;;;;;;;;;10390187;28;20095;-80
2023/10/28 13:32:27;;;;;;;11.55;7.50;;;;;;;;;;10389120;28;20057;-82
2023/10/28 13:37:28;;;;;;;17.73;10.07;;;;;;;;;;10371707;28;20049;-81
2023/10/28 13:42:29;;;;;;;27.33;16.92;;;;;;;;;;10384054;28;20034;-81
2023/10/28 13:47:30;;;;;;;14.82;8.73;;;;;;;;;;10375680;28;20405;-82
2023/10/28 13:52:32;;;;;;;9.77;5.70;;;;;;;;;;10392895;28;20029;-85
2023/10/28 13:57:33;;;;;;;13.60;5.85;;;;;;;;;;10379666;28;20378;-82
2023/10/28 14:02:34;;;;;;;12.98;6.82;;;;;;;;;;10366764;28;20038;-84
2023/10/28 14:07:36;;;;;;;13.27;6.50;;;;;;;;;;10380287;28;20029;-81
2023/10/28 14:12:41;;;;;;;13.48;6.85;;;;;;;;;;10365644;28;20068;-82
2023/10/28 14:17:42;;;;;;;17.85;9.52;;;;;;;;;;10364025;28;20050;-83
2023/10/28 14:22:43;;;;;;;18.15;10.30;;;;;;;;;;10358498;28;20453;-82
2023/10/28 14:27:44;;;;;;;16.58;8.77;;;;;;;;;;10365632;28;20096;-82
2023/10/28 14:33:00;;;;;;;16.98;8.68;;;;;;;;;;10364211;28;20038;-85
2023/10/28 14:38:01;;;;;;;11.48;6.85;;;;;;;;;;10362939;28;20473;-85
2023/10/28 14:43:02;;;;;;;16.95;8.05;;;;;;;;;;10365104;28;20029;-82
2023/10/28 14:48:12;;;;;;;17.88;9.27;;;;;;;;;;10368282;28;20025;-79
2023/10/28 14:53:14;;;;;;;14.82;7.82;;;;;;;;;;10368747;28;20083;-82
2023/10/28 14:58:15;;;;;;;18.10;8.38;;;;;;;;;;10363930;28;20600;-83
2023/10/28 15:03:16;;;;;;;17.30;7.85;;;;;;;;;;10382443;28;20878;-84
2023/10/28 15:08:17;;;;;;;14.90;8.95;;;;;;;;;;10367246;28;20689;-81
2023/10/28 15:13:21;;;;;;;23.60;12.43;;;;;;;;;;10371490;28;20028;-81
2023/10/28 15:18:22;;;;;;;16.58;9.27;;;;;;;;;;10361044;28;20042;-82
2023/10/28 15:23:24;;;;;;;21.73;11.18;;;;;;;;;;10363555;28;20033;-82
2023/10/28 15:28:26;;;;;;;17.23;9.35;;;;;;;;;;10361296;28;20557;-85
2023/10/28 15:33:35;;;;;;;15.77;8.75;;;;;;;;;;10365589;28;20062;-83
2023/10/28 15:38:36;;;;;;;15.32;8.25;;;;;;;;;;10360752;28;20056;-82
2023/10/28 15:43:41;;;;;;;16.77;9.65;;;;;;;;;;10362418;28;20674;-84
2023/10/28 15:48:46;;;;;;;18.02;8.80;;;;;;;;;;10367629;28;20030;-83
2023/10/28 15:53:47;;;;;;;17.77;8.93;;;;;;;;;;10344824;28;20696;-82
2023/10/28 15:58:51;;;;;;;14.35;7.50;;;;;;;;;;10367921;28;20430;-82
2023/10/28 16:03:52;;;;;;;22.38;10.60;;;;;;;;;;10361646;28;20405;-82
2023/10/28 16:08:53;;;;;;;25.02;11.90;;;;;;;;;;10366216;28;20049;-83
2023/10/28 16:13:54;;;;;;;20.55;11.43;;;;;;;;;;10391770;28;20037;-83
2023/10/28 16:18:57;;;;;;;24.73;12.60;;;;;;;;;;10385850;28;20045;-83
2023/10/28 16:23:58;;;;;;;23.15;11.57;;;;;;;;;;10378132;28;20037;-81
2023/10/28 16:28:59;;;;;;;23.25;11.80;;;;;;;;;;10389359;28;20068;-85
2023/10/28 16:34:00;;;;;;;25.10;12.95;;;;;;;;;;10389648;28;20062;-84
2023/10/28 16:39:03;;;;;;;37.63;17.02;;;;;;;;;;10396618;28;20571;-81
2023/10/28 16:44:08;;;;;;;32.05;14.77;;;;;;;;;;10394569;28;20041;-85
2023/10/28 16:49:11;;;;;;;31.88;14.70;;;;;;;;;;10377296;28;20763;-81
2023/10/28 16:54:13;;;;;;;31.25;15.18;;;;;;;;;;10368554;28;20034;-84
2023/10/28 16:59:14;;;;;;;26.67;13.18;;;;;;;;;;10369245;28;20106;-85
2023/10/28 17:04:21;;;;;;;28.83;14.70;;;;;;;;;;10367138;28;20030;-82
2023/10/28 17:09:24;;;;;;;27.00;13.88;;;;;;;;;;10376078;28;20064;-87
2023/10/28 17:14:25;;;;;;;26.10;13.70;;;;;;;;;;10373191;28;20616;-83
2023/10/28 17:19:26;;;;;;;28.83;16.90;;;;;;;;;;10363985;28;20064;-83
2023/10/28 17:24:34;;;;;;;34.42;16.60;;;;;;;;;;10367624;28;20026;-83
2023/10/28 17:29:35;;;;;;;37.38;20.42;;;;;;;;;;10365452;28;20030;-81
2023/10/28 17:34:36;;;;;;;39.00;19.77;;;;;;;;;;10358641;28;20041;-82
2023/10/28 17:39:36;;;;;;;35.33;16.25;;;;;;;;;;10361896;28;20045;-85
2023/10/28 17:44:38;;;;;;;29.67;13.32;;;;;;;;;;10382027;28;20030;-83
2023/10/28 17:49:39;;;;;;;37.55;15.90;;;;;;;;;;10371348;28;20684;-85
2023/10/28 17:54:40;;;;;;;38.85;16.77;;;;;;;;;;10370574;28;20449;-82
2023/10/28 17:59:41;;;;;;;36.42;15.23;;;;;;;;;;10353050;28;20046;-83
2023/10/28 18:04:43;;;;;;;45.65;19.00;;;;;;;;;;10367590;28;20505;-81
2023/10/28 18:09:44;;;;;;;32.00;16.02;;;;;;;;;;10362497;28;20034;-84
2023/10/28 18:14:51;;;;;;;31.75;15.07;;;;;;;;;;10381667;28;20037;-79
2023/10/28 18:19:52;;;;;;;22.63;12.27;;;;;;;;;;10372416;28;20041;-82
2023/10/28 18:24:53;;;;;;;19.63;9.82;;;;;;;;;;10373855;28;20041;-83
2023/10/28 18:29:54;;;;;;;21.15;11.63;;;;;;;;;;10372407;28;20034;-83
2023/10/28 18:35:03;;;;;;;45.78;30.85;;;;;;;;;;10367651;28;20049;-81
2023/10/28 18:40:05;;;;;;;33.85;20.45;;;;;;;;;;10366630;28;20034;-81
2023/10/28 18:45:06;;;;;;;27.98;16.08;;;;;;;;;;10365538;28;20040;-84
2023/10/28 18:50:08;;;;;;;28.95;15.30;;;;;;;;;;10372032;28;20030;-82
2023/10/28 18:55:08;;;;;;;29.58;15.27;;;;;;;;;;10370348;28;20584;-83
2023/10/28 19:00:16;;;;;;;24.70;15.70;;;;;;;;;;10363073;28;20042;-82
2023/10/28 19:05:20;;;;;;;27.23;16.75;;;;;;;;;;10362902;28;20037;-82
2023/10/28 19:10:21;;;;;;;23.80;12.63;;;;;;;;;;10372406;28;20053;-82
2023/10/28 19:15:29;;;;;;;23.15;12.05;;;;;;;;;;10360993;28;20137;-81
2023/10/28 19:20:30;;;;;;;19.83;12.00;;;;;;;;;;10344997;28;20049;-83
2023/10/28 19:25:31;;;;;;;19.48;10.70;;;;;;;;;;10371645;28;20037;-81
2023/10/28 19:30:33;;;;;;;24.25;12.48;;;;;;;;;;10359528;28;20077;-82
2023/10/28 19:35:34;;;;;;;23.55;11.15;;;;;;;;;;10363513;28;20052;-83
2023/10/28 19:40:35;;;;;;;22.60;11.65;;;;;;;;;;10340751;28;20501;-81
2023/10/28 19:45:36;;;;;;;28.92;15.02;;;;;;;;;;10362339;28;20065;-82
2023/10/28 19:50:37;;;;;;;26.35;15.05;;;;;;;;;;10371440;28;20552;-82
2023/10/28 19:55:38;;;;;;;24.55;12.07;;;;;;;;;;10364844;28;20037;-82
2023/10/28 20:00:39;;;;;;;33.58;15.05;;;;;;;;;;10361477;28;20038;-83
2023/10/28 20:05:40;;;;;;;25.20;11.68;;;;;;;;;;10369067;28;20522;-82
2023/10/28 20:10:41;;;;;;;22.52;10.88;;;;;;;;;;10363019;28;20037;-81
2023/10/28 20:15:42;;;;;;;25.88;13.20;;;;;;;;;;10360082;28;20595;-82
2023/10/28 20:20:43;;;;;;;16.23;9.20;;;;;;;;;;10360637;28;20076;-82
2023/10/28 20:25:45;;;;;;;25.52;12.27;;;;;;;;;;10362321;28;20026;-81
2023/10/28 20:30:46;;;;;;;22.25;10.23;;;;;;;;;;10366937;28;20053;-82
2023/10/28 20:35:47;;;;;;;20.75;9.73;;;;;;;;;;10360928;28;20041;-81
2023/10/28 20:40:48;;;;;;;27.88;15.55;;;;;;;;;;10370707;28;20026;-82
2023/10/28 20:45:50;;;;;;;26.75;12.48;;;;;;;;;;10343504;28;20026;-82
2023/10/28 20:50:51;;;;;;;24.95;10.98;;;;;;;;;;10360770;28;20092;-82
2023/10/28 20:55:53;;;;;;;13.68;7.30;;;;;;;;;;10362408;28;20069;-82
2023/10/28 21:00:54;;;;;;;14.73;9.10;;;;;;;;;;10360485;28;20026;-81
2023/10/28 21:05:55;;;;;;;13.68;7.50;;;;;;;;;;10360565;28;20076;-81
2023/10/28 21:10:56;;;;;;;15.23;7.22;;;;;;;;;;10361576;28;20470;-83
2023/10/28 21:15:57;;;;;;;15.43;8.25;;;;;;;;;;10360420;28;20073;-81
2023/10/28 21:20:58;;;;;;;12.80;6.97;;;;;;;;;;10360597;28;20489;-82
2023/10/28 21:26:00;;;;;;;16.10;6.85;;;;;;;;;;10363258;28;20034;-82
2023/10/28 21:31:03;;;;;;;16.70;7.80;;;;;;;;;;10366485;28;20058;-82
2023/10/28 21:36:04;;;;;;;17.38;7.05;;;;;;;;;;10374462;28;20455;-82
2023/10/28 21:41:08;;;;;;;16.45;6.72;;;;;;;;;;10379195;28;20022;-81
2023/10/28 21:46:09;;;;;;;13.02;6.10;;;;;;;;;;10359116;28;20647;-82
2023/10/28 21:51:11;;;;;;;15.60;7.35;;;;;;;;;;10348953;28;20030;-82
2023/10/28 21:56:12;;;;;;;10.68;6.38;;;;;;;;;;10367766;28;20042;-82
2023/10/28 22:01:17;;;;;;;14.43;6.63;;;;;;;;;;10366980;28;20026;-82
2023/10/28 22:06:18;;;;;;;18.55;7.43;;;;;;;;;;10361318;28;20030;-81
2023/10/28 22:11:19;;;;;;;17.67;7.80;;;;;;;;;;10382182;28;20094;-82
2023/10/28 22:16:20;;;;;;;14.73;6.13;;;;;;;;;;10365649;28;20036;-81
2023/10/28 22:21:21;;;;;;;14.10;5.88;;;;;;;;;;10364489;28;20021;-83
2023/10/28 22:26:22;;;;;;;13.07;5.80;;;;;;;;;;10365746;28;20752;-82
2023/10/28 22:31:23;;;;;;;11.57;5.68;;;;;;;;;;10363952;28;20560;-82
2023/10/28 22:36:25;;;;;;;9.98;5.05;;;;;;;;;;10359694;28;20034;-82
2023/10/28 22:41:27;;;;;;;13.73;6.07;;;;;;;;;;10365112;28;20030;-82
2023/10/28 22:46:28;;;;;;;12.20;5.55;;;;;;;;;;10364642;28;20026;-82
2023/10/28 22:51:29;;;;;;;11.55;5.18;;;;;;;;;;10360421;28;20115;-82
2023/10/28 22:56:30;;;;;;;14.05;6.35;;;;;;;;;;10365538;28;20614;-82
2023/10/28 23:01:32;;;;;;;9.35;5.45;;;;;;;;;;10376812;28;20049;-82
2023/10/28 23:06:33;;;;;;;10.55;6.05;;;;;;;;;;10349928;28;20103;-82
2023/10/28 23:11:37;;;;;;;9.05;5.35;;;;;;;;;;10365227;28;20926;-82
2023/10/28 23:16:38;;;;;;;12.00;5.80;;;;;;;;;;10359117;28;20528;-81
2023/10/28 23:21:45;;;;;;;12.73;6.22;;;;;;;;;;10374269;28;20536;-82
2023/10/28 23:26:46;;;;;;;12.27;5.65;;;;;;;;;;10367687;28;20051;-81
2023/10/28 23:31:47;;;;;;;10.93;5.68;;;;;;;;;;10362236;28;20706;-82
2023/10/28 23:36:48;;;;;;;12.82;5.13;;;;;;;;;;10344102;28;20045;-82
2023/10/28 23:41:49;;;;;;;10.82;4.90;;;;;;;;;;10356639;28;20674;-82
2023/10/28 23:46:50;;;;;;;10.93;5.93;;;;;;;;;;10356492;28;20029;-83
2023/10/28 23:51:51;;;;;;;11.90;5.47;;;;;;;;;;10362145;28;20057;-83
2023/10/28 23:56:52;;;;;;;11.88;5.03;;;;;;;;;;10362945;28;20145;-82
